Time;durP1;ratioP1;P1;durP2;ratioP2;P2;SDS_P1;SDS_P2;PMS_P1;PMS_P2;Temp;Humidity;BMP_temperature;BMP_pressure;BME280_temperature;BME280_humidity;BME280_pressure;Samples;Min_cycle;Max_cycle;Signal;HPM_P1;HPM_P2
2022/03/18 00:01:59;;;;;;;10.97;2.50;;;24.90;71.60;;;;;;5053355;28;20184;-79
2022/03/18 00:04:26;;;;;;;13.60;2.20;;;25.20;71.20;;;;;;5052649;28;20202;-77
2022/03/18 00:06:54;;;;;;;6.60;2.03;;;25.30;69.70;;;;;;5052037;28;20259;-78
2022/03/18 00:09:22;;;;;;;10.13;1.97;;;25.40;70.00;;;;;;5051199;28;20206;-80
2022/03/18 00:11:54;;;;;;;9.77;2.60;;;25.40;70.20;;;;;;5034644;28;20200;-80
2022/03/18 00:14:22;;;;;;;8.73;2.10;;;25.40;68.80;;;;;;5037791;28;20512;-78
2022/03/18 00:16:49;;;;;;;8.13;2.03;;;25.50;67.80;;;;;;5052252;28;20603;-85
2022/03/18 00:19:17;;;;;;;10.40;3.40;;;25.40;68.00;;;;;;5052947;28;20239;-78
2022/03/18 00:21:44;;;;;;;30.83;2.67;;;25.40;68.40;;;;;;5041806;28;20184;-76
2022/03/18 00:24:11;;;;;;;8.83;2.07;;;25.30;68.30;;;;;;5050545;28;20664;-83
2022/03/18 00:26:39;;;;;;;6.63;1.80;;;25.20;69.00;;;;;;5048598;28;22049;-79
2022/03/18 00:29:06;;;;;;;10.03;1.90;;;25.30;69.00;;;;;;5040378;28;20250;-81
2022/03/18 00:31:33;;;;;;;7.33;2.20;;;25.30;69.20;;;;;;5048024;28;20204;-78
2022/03/18 00:34:02;;;;;;;7.23;1.90;;;25.40;68.30;;;;;;5051892;28;20678;-77
2022/03/18 00:36:29;;;;;;;12.10;2.63;;;25.50;68.20;;;;;;5040540;28;20240;-79
2022/03/18 00:38:56;;;;;;;5.90;1.57;;;25.60;67.90;;;;;;5043972;28;20303;-76
2022/03/18 00:41:24;;;;;;;8.77;2.10;;;25.70;66.90;;;;;;5046328;28;20172;-81
2022/03/18 00:43:52;;;;;;;9.40;1.93;;;25.70;67.10;;;;;;5048580;28;20183;-84
2022/03/18 00:46:22;;;;;;;7.13;2.20;;;25.80;65.60;;;;;;5049749;28;20259;-78
2022/03/18 00:54:22;;;;;;;6.93;1.90;;;26.10;65.60;;;;;;5052801;28;20195;-86
2022/03/18 00:56:50;;;;;;;11.53;3.47;;;26.40;63.80;;;;;;5043482;28;20245;-86
2022/03/18 00:59:17;;;;;;;10.00;2.77;;;26.30;64.20;;;;;;5054092;28;20226;-80
2022/03/18 01:01:45;;;;;;;9.17;2.13;;;26.50;63.30;;;;;;5049611;28;20195;-76
2022/03/18 01:04:12;;;;;;;9.87;2.07;;;26.50;64.40;;;;;;5051706;28;20230;-76
2022/03/18 01:06:39;;;;;;;11.23;2.17;;;26.60;64.50;;;;;;5048224;28;20286;-77
2022/03/18 01:09:07;;;;;;;8.07;2.00;;;26.90;63.60;;;;;;5032943;28;20184;-84
2022/03/18 01:11:34;;;;;;;8.60;2.40;;;27.30;62.10;;;;;;5052190;28;20184;-78
2022/03/18 01:14:02;;;;;;;13.50;6.10;;;27.30;62.30;;;;;;5053640;28;20183;-76
2022/03/18 01:16:29;;;;;;;10.43;2.40;;;27.30;63.30;;;;;;5054964;28;20208;-77
2022/03/18 01:18:56;;;;;;;12.70;2.20;;;27.30;61.70;;;;;;5054774;28;20302;-77
2022/03/18 01:21:24;;;;;;;7.33;1.83;;;27.60;61.30;;;;;;5056115;28;20684;-79
2022/03/18 01:23:51;;;;;;;9.17;3.43;;;27.60;61.10;;;;;;5056170;28;20176;-77
2022/03/18 01:26:19;;;;;;;6.80;1.70;;;27.40;61.30;;;;;;5055669;28;20184;-77
2022/03/18 01:28:46;;;;;;;8.03;2.30;;;27.30;59.30;;;;;;5053773;28;20589;-78
2022/03/18 01:31:14;;;;;;;7.63;2.03;;;27.10;59.80;;;;;;5054947;28;20810;-77
2022/03/18 01:33:41;;;;;;;9.40;1.80;;;27.30;61.70;;;;;;5055570;28;20230;-77
2022/03/18 01:36:08;;;;;;;12.17;2.60;;;27.50;61.00;;;;;;5055672;28;20188;-78
2022/03/18 01:38:38;;;;;;;9.70;1.90;;;27.90;59.60;;;;;;5055339;28;20204;-75
2022/03/18 01:41:06;;;;;;;7.57;2.00;;;28.00;59.90;;;;;;5055765;28;20543;-74
2022/03/18 01:43:42;;;;;;;10.40;2.57;;;28.00;59.10;;;;;;5055235;28;20176;-77
2022/03/18 01:46:14;;;;;;;11.23;2.03;;;27.90;60.00;;;;;;5055537;28;20199;-76
2022/03/18 01:48:41;;;;;;;11.00;3.47;;;27.60;59.40;;;;;;5053561;28;20184;-77
2022/03/18 01:51:09;;;;;;;7.63;2.17;;;28.00;58.10;;;;;;5055454;28;20350;-75
2022/03/18 01:56:59;;;;;;;9.90;2.00;;;27.40;59.60;;;;;;5052665;28;20191;-76
2022/03/18 01:59:27;;;;;;;7.50;2.13;;;27.40;58.70;;;;;;5037871;28;20679;-76
2022/03/18 02:01:54;;;;;;;6.30;1.80;;;27.70;57.20;;;;;;5043579;28;20183;-75
2022/03/18 02:04:21;;;;;;;8.10;1.97;;;27.70;57.70;;;;;;5053274;28;20176;-77
2022/03/18 02:06:49;;;;;;;8.63;2.00;;;28.20;56.60;;;;;;5052475;28;20607;-76
2022/03/18 02:09:17;;;;;;;7.07;1.97;;;28.70;55.10;;;;;;5050167;28;20182;-76
2022/03/18 02:11:44;;;;;;;5.20;1.40;;;28.60;56.10;;;;;;5053545;28;20190;-77
2022/03/18 02:14:12;;;;;;;6.10;1.90;;;28.70;54.90;;;;;;5050661;28;20187;-75
2022/03/18 02:16:40;;;;;;;7.60;2.43;;;28.70;55.50;;;;;;5054010;28;20176;-77
2022/03/18 02:19:08;;;;;;;12.07;2.13;;;28.70;55.00;;;;;;5041633;28;20247;-75
2022/03/18 02:21:38;;;;;;;10.03;2.10;;;28.80;54.90;;;;;;5039282;28;20184;-78
2022/03/18 02:24:06;;;;;;;8.43;2.20;;;28.80;54.60;;;;;;5044063;28;20266;-77
2022/03/18 02:26:34;;;;;;;9.33;2.47;;;28.80;55.00;;;;;;5054094;28;20179;-75
2022/03/18 02:29:03;;;;;;;11.80;2.67;;;28.90;54.80;;;;;;5054440;28;20172;-77
2022/03/18 02:31:33;;;;;;;11.77;3.40;;;29.50;53.10;;;;;;5053891;28;20258;-76
2022/03/18 02:34:00;;;;;;;6.45;1.73;;;29.80;52.00;;;;;;5056921;28;20184;-76
2022/03/18 02:36:28;;;;;;;7.35;1.92;;;30.00;50.60;;;;;;5053205;28;20204;-77
2022/03/18 02:38:55;;;;;;;9.20;2.20;;;30.30;49.20;;;;;;5053939;28;20613;-77
2022/03/18 02:41:22;;;;;;;8.38;1.70;;;29.80;53.60;;;;;;5046483;28;20214;-76
2022/03/18 02:43:50;;;;;;;7.20;1.85;;;29.80;53.30;;;;;;5046333;28;20187;-76
2022/03/18 02:46:17;;;;;;;6.68;1.77;;;29.80;52.60;;;;;;5034726;28;20173;-76
2022/03/18 02:48:45;;;;;;;10.68;2.05;;;30.00;51.60;;;;;;5036135;28;20199;-77
2022/03/18 02:51:13;;;;;;;3.28;1.35;;;30.10;50.90;;;;;;5053864;28;20184;-78
2022/03/18 02:53:40;;;;;;;5.05;2.00;;;29.50;52.10;;;;;;5054024;28;20176;-76
2022/03/18 02:56:08;;;;;;;6.88;2.03;;;29.30;52.90;;;;;;5052513;28;20184;-75
2022/03/18 02:58:37;;;;;;;11.00;2.25;;;29.10;53.90;;;;;;5044505;28;20205;-77
2022/03/18 03:01:05;;;;;;;7.78;1.98;;;29.00;53.40;;;;;;5034521;28;20184;-77
2022/03/18 03:03:32;;;;;;;7.10;2.50;;;29.60;52.70;;;;;;5051582;28;20184;-78
2022/03/18 03:08:44;;;;;;;5.65;2.17;;;31.00;49.00;;;;;;5053305;28;20242;-78
2022/03/18 03:11:12;;;;;;;7.20;2.17;;;31.30;49.20;;;;;;5050577;28;20172;-76
2022/03/18 03:13:40;;;;;;;7.43;2.72;;;31.10;49.20;;;;;;5047807;28;20263;-81
2022/03/18 03:16:08;;;;;;;10.90;4.13;;;30.30;49.40;;;;;;5052961;28;20180;-76
2022/03/18 03:18:36;;;;;;;6.50;2.42;;;30.80;49.40;;;;;;5050238;28;20306;-80
2022/03/18 03:21:03;;;;;;;8.57;2.25;;;31.30;47.80;;;;;;5050673;28;20199;-79
2022/03/18 03:23:31;;;;;;;9.57;2.42;;;30.70;50.30;;;;;;5051633;28;20643;-78
2022/03/18 03:25:58;;;;;;;5.32;2.22;;;31.10;50.30;;;;;;5051871;28;20549;-78
2022/03/18 03:28:25;;;;;;;10.27;2.22;;;30.80;51.50;;;;;;5052481;28;20180;-80
2022/03/18 03:30:52;;;;;;;6.75;2.33;;;30.80;51.30;;;;;;5046405;28;20538;-75
2022/03/18 03:33:20;;;;;;;9.98;2.30;;;31.10;51.10;;;;;;5052579;28;20646;-76
2022/03/18 03:35:47;;;;;;;4.85;1.70;;;30.80;51.40;;;;;;5051059;28;20192;-75
2022/03/18 03:38:15;;;;;;;10.15;2.10;;;30.80;50.30;;;;;;5046078;28;20191;-75
2022/03/18 03:40:44;;;;;;;8.05;2.83;;;31.30;49.70;;;;;;5052631;28;20208;-76
2022/03/18 03:43:11;;;;;;;7.93;3.35;;;31.10;49.80;;;;;;5052295;28;20198;-83
2022/03/18 03:45:40;;;;;;;7.88;3.40;;;31.10;50.30;;;;;;5053665;28;20200;-80
2022/03/18 03:48:10;;;;;;;8.07;2.10;;;31.50;48.90;;;;;;5049193;28;20198;-78
2022/03/18 03:50:40;;;;;;;9.75;2.08;;;30.80;49.60;;;;;;5046521;28;20191;-74
2022/03/18 03:53:09;;;;;;;6.25;2.28;;;30.90;50.20;;;;;;5044385;28;20184;-77
2022/03/18 03:55:39;;;;;;;8.98;2.22;;;31.10;50.50;;;;;;5050366;28;20188;-75
2022/03/18 03:58:08;;;;;;;7.45;2.20;;;31.10;50.90;;;;;;5050512;28;20211;-74
2022/03/18 04:00:36;;;;;;;9.07;2.08;;;30.70;51.70;;;;;;5048287;28;20278;-77
2022/03/18 04:03:05;;;;;;;9.60;2.35;;;31.10;50.30;;;;;;5050235;28;20180;-77
2022/03/18 04:05:37;;;;;;;7.90;2.20;;;31.30;50.00;;;;;;5038231;28;20287;-79
2022/03/18 04:08:04;;;;;;;10.25;2.35;;;31.60;49.90;;;;;;5048452;28;20184;-76
2022/03/18 04:10:32;;;;;;;5.05;1.58;;;31.60;49.80;;;;;;5052044;28;20532;-75
2022/03/18 04:12:59;;;;;;;9.73;2.33;;;31.20;50.20;;;;;;5051730;28;20180;-77
2022/03/18 04:15:27;;;;;;;10.93;2.60;;;31.40;49.60;;;;;;5050455;28;20554;-74
2022/03/18 04:17:57;;;;;;;8.75;1.77;;;31.30;49.10;;;;;;5051038;28;20176;-80
2022/03/18 04:20:25;;;;;;;7.68;1.98;;;31.50;49.60;;;;;;5051862;28;20264;-77
2022/03/18 04:22:53;;;;;;;7.13;1.92;;;31.40;49.30;;;;;;5048603;28;20179;-77
2022/03/18 04:25:20;;;;;;;11.85;2.13;;;31.70;48.40;;;;;;5045595;28;20183;-73
2022/03/18 04:27:48;;;;;;;6.22;1.98;;;31.20;49.80;;;;;;5041939;28;20183;-79
2022/03/18 04:30:16;;;;;;;7.00;1.92;;;30.80;50.20;;;;;;5043077;28;20187;-77
2022/03/18 04:32:47;;;;;;;7.28;2.03;;;31.30;49.40;;;;;;5050593;28;20187;-76
2022/03/18 04:35:14;;;;;;;11.27;2.05;;;31.60;49.40;;;;;;5051209;28;20557;-78
2022/03/18 04:37:42;;;;;;;6.72;1.75;;;31.60;49.40;;;;;;5042664;28;20185;-77
2022/03/18 04:40:12;;;;;;;5.03;1.20;;;31.80;48.60;;;;;;5048195;28;20234;-77
2022/03/18 04:42:40;;;;;;;7.07;1.90;;;31.90;47.90;;;;;;5046088;28;20195;-78
2022/03/18 04:45:08;;;;;;;7.00;2.08;;;31.90;47.70;;;;;;5046198;28;20635;-78
2022/03/18 04:47:36;;;;;;;7.70;1.92;;;31.80;47.60;;;;;;5051677;28;20187;-77
2022/03/18 04:50:07;;;;;;;6.00;1.77;;;32.00;47.20;;;;;;5051540;28;20208;-80
2022/03/18 04:52:34;;;;;;;7.32;1.73;;;31.70;48.20;;;;;;5045579;28;20596;-76
2022/03/18 04:55:02;;;;;;;5.47;1.83;;;31.40;48.00;;;;;;5044666;28;20180;-77
2022/03/18 04:57:31;;;;;;;6.20;1.67;;;32.10;47.60;;;;;;5042992;28;20318;-81
2022/03/18 04:59:58;;;;;;;8.48;2.20;;;32.30;46.20;;;;;;5049355;28;20226;-76
2022/03/18 05:02:26;;;;;;;4.28;1.27;;;31.90;47.20;;;;;;5051371;28;20662;-76
2022/03/18 05:04:54;;;;;;;6.85;1.90;;;31.40;47.60;;;;;;5050254;28;20245;-78
2022/03/18 05:07:21;;;;;;;8.10;1.58;;;31.40;48.20;;;;;;5048094;28;20298;-77
2022/03/18 05:09:49;;;;;;;6.65;1.67;;;31.70;47.70;;;;;;5047017;28;20179;-76
2022/03/18 05:12:17;;;;;;;9.45;1.75;;;31.80;47.40;;;;;;5051453;28;20184;-79
2022/03/18 05:14:49;;;;;;;5.28;1.70;;;31.70;47.50;;;;;;5050683;28;20716;-85
2022/03/18 05:17:16;;;;;;;8.68;1.83;;;31.00;49.00;;;;;;5051263;28;20184;-77
2022/03/18 05:19:43;;;;;;;10.20;1.95;;;31.70;47.90;;;;;;5051263;28;20694;-77
2022/03/18 05:22:10;;;;;;;12.18;1.70;;;31.90;46.70;;;;;;5047331;28;20670;-76
2022/03/18 05:24:38;;;;;;;8.05;1.63;;;31.50;46.70;;;;;;5038200;28;20271;-78
2022/03/18 05:27:06;;;;;;;5.43;2.17;;;31.00;48.90;;;;;;5066433;28;20188;-75
2022/03/18 05:29:33;;;;;;;8.70;2.70;;;31.30;48.20;;;;;;5073935;28;20175;-79
2022/03/18 05:32:01;;;;;;;7.63;2.20;;;31.00;48.50;;;;;;5048732;28;20191;-77
2022/03/18 05:34:29;;;;;;;3.67;1.83;;;31.20;48.60;;;;;;5045143;28;20185;-78
2022/03/18 05:36:57;;;;;;;8.02;1.60;;;31.30;48.50;;;;;;5055523;28;20176;-77
2022/03/18 05:39:24;;;;;;;5.38;1.60;;;31.60;47.30;;;;;;5054858;28;20222;-76
2022/03/18 05:41:52;;;;;;;8.55;3.13;;;30.90;48.90;;;;;;5055296;28;20183;-76
2022/03/18 05:44:22;;;;;;;5.40;2.00;;;30.80;49.30;;;;;;5055464;28;20180;-76
2022/03/18 05:46:49;;;;;;;8.80;1.90;;;31.30;49.10;;;;;;5055015;28;20528;-77
2022/03/18 05:49:20;;;;;;;6.57;1.90;;;31.30;47.60;;;;;;5056433;28;20167;-80
2022/03/18 05:51:50;;;;;;;6.90;1.85;;;31.80;47.70;;;;;;5055575;28;20184;-79
2022/03/18 05:54:20;;;;;;;4.80;1.58;;;32.70;45.20;;;;;;5053852;28;20198;-77
2022/03/18 05:56:53;;;;;;;6.10;2.13;;;33.30;44.30;;;;;;5055396;28;20175;-77
2022/03/18 05:59:22;;;;;;;8.20;2.55;;;32.80;44.60;;;;;;5052874;28;20318;-76
2022/03/18 06:01:54;;;;;;;6.85;2.17;;;32.20;46.10;;;;;;5054231;28;20202;-78
2022/03/18 06:04:22;;;;;;;11.00;2.33;;;33.30;44.20;;;;;;5054108;28;20186;-76
2022/03/18 06:06:50;;;;;;;6.55;1.98;;;33.10;44.00;;;;;;5051567;28;20231;-80
2022/03/18 06:12:06;;;;;;;6.95;1.92;;;31.90;46.90;;;;;;5046667;28;20187;-79
2022/03/18 06:14:34;;;;;;;10.05;2.08;;;32.30;46.30;;;;;;5042973;28;20262;-77
2022/03/18 06:17:04;;;;;;;11.15;1.85;;;31.30;48.30;;;;;;5039080;28;20252;-80
2022/03/18 06:19:32;;;;;;;5.15;1.52;;;30.90;49.80;;;;;;5054189;28;20575;-77
2022/03/18 06:22:00;;;;;;;6.40;1.83;;;30.80;48.90;;;;;;5054607;28;20198;-80
2022/03/18 06:24:29;;;;;;;7.57;2.08;;;30.70;49.70;;;;;;5053266;28;20604;-78
2022/03/18 06:26:57;;;;;;;9.00;2.03;;;31.40;48.70;;;;;;5035909;28;20173;-76
2022/03/18 06:29:24;;;;;;;7.35;2.13;;;32.30;46.30;;;;;;5053506;28;20168;-78
2022/03/18 06:31:52;;;;;;;10.45;1.85;;;33.20;43.90;;;;;;5049253;28;20650;-78
2022/03/18 06:34:20;;;;;;;7.07;2.13;;;32.90;44.80;;;;;;5049316;28;20221;-78
2022/03/18 06:36:52;;;;;;;10.38;2.67;;;32.90;44.50;;;;;;5054429;28;20207;-78
2022/03/18 06:39:22;;;;;;;7.10;1.70;;;33.50;43.40;;;;;;5049461;28;20207;-78
2022/03/18 06:41:52;;;;;;;4.90;2.33;;;33.80;41.10;;;;;;5035415;28;20652;-78
2022/03/18 06:44:23;;;;;;;9.05;2.08;;;33.00;43.60;;;;;;5053261;28;20180;-80
2022/03/18 06:46:50;;;;;;;6.70;1.88;;;32.90;42.60;;;;;;5052130;28;20180;-78
2022/03/18 06:49:22;;;;;;;5.82;2.10;;;32.90;42.70;;;;;;5051299;28;20571;-78
2022/03/18 06:51:52;;;;;;;7.32;2.35;;;32.80;42.60;;;;;;5048859;28;20283;-78
2022/03/18 06:54:20;;;;;;;6.03;1.90;;;32.90;42.80;;;;;;5050146;28;20179;-77
2022/03/18 06:56:47;;;;;;;10.02;4.32;;;32.10;43.80;;;;;;5043318;28;20180;-77
2022/03/18 06:59:15;;;;;;;6.82;2.50;;;32.10;44.30;;;;;;5053935;28;20204;-80
2022/03/18 07:01:42;;;;;;;6.97;1.90;;;31.80;45.30;;;;;;5042728;28;20240;-75
2022/03/18 07:04:16;;;;;;;6.50;1.73;;;31.90;44.10;;;;;;5051058;28;20192;-76
2022/03/18 07:06:43;;;;;;;8.60;1.88;;;32.10;44.70;;;;;;5049169;28;20571;-78
2022/03/18 07:09:14;;;;;;;5.28;1.90;;;31.30;45.80;;;;;;5041341;28;20187;-80
2022/03/18 07:11:41;;;;;;;9.15;1.95;;;31.70;45.50;;;;;;5044215;28;20635;-79
2022/03/18 07:14:08;;;;;;;7.60;1.98;;;32.30;43.90;;;;;;5044472;28;20538;-80
2022/03/18 07:19:21;;;;;;;5.80;1.60;;;31.80;44.80;;;;;;5052802;28;20234;-75
2022/03/18 07:21:51;;;;;;;8.63;2.28;;;31.10;47.10;;;;;;5050783;28;20180;-78
2022/03/18 07:24:22;;;;;;;7.57;1.88;;;30.00;50.00;;;;;;5044605;28;20175;-81
2022/03/18 07:26:49;;;;;;;6.30;1.98;;;30.70;48.40;;;;;;5044614;28;20207;-78
2022/03/18 07:29:17;;;;;;;8.02;1.98;;;30.70;49.00;;;;;;5032029;28;20234;-79
2022/03/18 07:31:44;;;;;;;9.45;1.85;;;29.80;50.80;;;;;;5040959;28;20176;-79
2022/03/18 07:34:14;;;;;;;10.30;1.90;;;28.90;53.90;;;;;;5047905;28;20192;-78
2022/03/18 07:36:45;;;;;;;6.63;2.13;;;28.20;56.10;;;;;;5053335;28;20176;-77
2022/03/18 07:39:12;;;;;;;8.87;1.97;;;27.70;58.10;;;;;;5048156;28;20206;-79
2022/03/18 07:41:42;;;;;;;8.83;2.80;;;27.00;60.20;;;;;;5038907;28;20176;-80
2022/03/18 07:44:10;;;;;;;6.80;2.10;;;26.80;61.20;;;;;;5053370;28;20183;-78
2022/03/18 07:46:40;;;;;;;8.17;2.43;;;27.00;61.10;;;;;;5052898;28;20267;-80
2022/03/18 07:49:11;;;;;;;8.33;1.77;;;26.80;62.20;;;;;;5051364;28;20723;-77
2022/03/18 07:51:38;;;;;;;11.23;1.67;;;26.40;63.80;;;;;;5041938;28;20183;-79
2022/03/18 07:54:11;;;;;;;8.63;2.10;;;26.20;65.00;;;;;;5052983;28;20191;-77
2022/03/18 07:56:39;;;;;;;9.30;2.27;;;26.10;65.60;;;;;;5049389;28;20581;-78
2022/03/18 07:59:06;;;;;;;14.93;2.87;;;25.90;66.30;;;;;;5052203;28;20199;-78
2022/03/18 08:01:40;;;;;;;12.73;2.33;;;25.80;67.10;;;;;;5052528;28;20187;-78
2022/03/18 08:04:09;;;;;;;8.40;2.60;;;25.80;67.70;;;;;;5051950;28;20206;-78
2022/03/18 08:06:36;;;;;;;8.70;2.17;;;25.50;68.80;;;;;;5051015;28;20224;-78
2022/03/18 08:09:05;;;;;;;9.33;2.03;;;25.50;69.00;;;;;;5051357;28;20179;-76
2022/03/18 08:11:33;;;;;;;10.03;2.50;;;25.30;69.80;;;;;;5048617;28;20176;-79
2022/03/18 08:14:01;;;;;;;16.20;2.93;;;25.20;70.40;;;;;;5046779;28;20172;-81
2022/03/18 08:16:32;;;;;;;8.50;2.50;;;25.30;70.20;;;;;;5048936;28;20180;-79
2022/03/18 08:18:59;;;;;;;9.63;2.23;;;25.40;69.50;;;;;;5050171;28;20822;-81
2022/03/18 08:21:27;;;;;;;7.43;1.87;;;25.40;69.60;;;;;;5032167;28;20188;-78
2022/03/18 08:23:54;;;;;;;8.43;2.17;;;25.50;70.00;;;;;;5032620;28;20211;-80
2022/03/18 08:26:26;;;;;;;11.13;2.57;;;25.30;70.50;;;;;;5045981;28;20203;-76
2022/03/18 08:28:57;;;;;;;7.87;2.13;;;25.30;70.60;;;;;;5032927;28;20610;-79
2022/03/18 08:31:29;;;;;;;12.93;2.70;;;25.20;71.10;;;;;;5032464;28;20666;-79
2022/03/18 08:34:00;;;;;;;8.70;2.03;;;25.20;70.90;;;;;;5043230;28;20198;-78
2022/03/18 08:36:30;;;;;;;13.90;2.40;;;25.20;71.10;;;;;;5051590;28;20713;-79
2022/03/18 08:38:58;;;;;;;9.50;2.20;;;25.00;71.70;;;;;;5041836;28;20679;-78
2022/03/18 08:41:25;;;;;;;10.10;2.33;;;25.10;71.40;;;;;;5050729;28;20232;-77
2022/03/18 08:43:52;;;;;;;11.87;2.60;;;25.00;71.70;;;;;;5050583;28;20175;-78
2022/03/18 08:46:20;;;;;;;9.53;2.77;;;24.90;72.10;;;;;;5048252;28;20665;-76
2022/03/18 08:48:48;;;;;;;10.30;2.23;;;24.80;72.20;;;;;;5043265;28;20184;-81
2022/03/18 08:51:16;;;;;;;8.80;2.00;;;24.80;72.70;;;;;;5044958;28;20175;-77
2022/03/18 08:53:44;;;;;;;14.53;2.60;;;24.80;72.70;;;;;;5041133;28;20198;-77
2022/03/18 08:56:11;;;;;;;11.73;2.60;;;24.80;72.70;;;;;;5041257;28;20207;-77
2022/03/18 08:58:41;;;;;;;9.80;2.43;;;24.80;72.70;;;;;;5044889;28;20200;-77
2022/03/18 09:01:08;;;;;;;9.93;2.50;;;24.80;72.60;;;;;;5049356;28;20184;-78
2022/03/18 09:03:39;;;;;;;9.13;2.60;;;24.80;72.90;;;;;;5056348;28;20233;-79
2022/03/18 09:06:14;;;;;;;7.40;2.07;;;24.80;73.00;;;;;;5050153;28;20220;-78
2022/03/18 09:08:42;;;;;;;13.47;2.83;;;24.80;72.60;;;;;;5043914;28;20188;-78
2022/03/18 09:11:10;;;;;;;8.17;2.60;;;24.90;72.80;;;;;;5044056;28;20184;-77
2022/03/18 09:13:38;;;;;;;10.93;2.63;;;24.80;72.80;;;;;;5049236;28;20198;-79
2022/03/18 09:16:06;;;;;;;12.07;2.57;;;24.80;72.90;;;;;;5055390;28;20255;-79
2022/03/18 09:18:33;;;;;;;10.97;3.23;;;24.90;72.90;;;;;;5040601;28;20745;-79
2022/03/18 09:21:07;;;;;;;10.20;2.70;;;24.90;73.10;;;;;;5047406;28;20184;-78
2022/03/18 09:23:34;;;;;;;10.23;2.67;;;24.80;73.30;;;;;;5037374;28;20576;-78
2022/03/18 09:26:01;;;;;;;11.97;2.53;;;24.80;73.30;;;;;;5035088;28;20272;-78
2022/03/18 09:28:29;;;;;;;10.17;2.87;;;24.70;73.70;;;;;;5051610;28;20438;-78
2022/03/18 09:30:56;;;;;;;12.87;3.13;;;24.80;73.60;;;;;;5042451;28;20704;-78
2022/03/18 09:33:23;;;;;;;9.57;2.90;;;24.80;73.40;;;;;;5051832;28;20238;-78
2022/03/18 09:35:51;;;;;;;15.07;3.13;;;24.70;73.40;;;;;;5053879;28;20188;-78
2022/03/18 09:38:21;;;;;;;11.20;2.63;;;24.70;73.70;;;;;;5053412;28;20215;-78
2022/03/18 09:40:52;;;;;;;11.53;3.13;;;24.70;73.70;;;;;;5052560;28;20592;-77
2022/03/18 09:43:19;;;;;;;11.00;2.80;;;24.60;74.20;;;;;;5053164;28;20261;-78
2022/03/18 09:45:47;;;;;;;10.40;2.50;;;24.70;74.20;;;;;;5053349;28;20191;-80
2022/03/18 09:48:14;;;;;;;11.13;3.20;;;24.70;74.10;;;;;;5055423;28;20221;-82
2022/03/18 09:50:42;;;;;;;7.87;3.03;;;24.80;73.90;;;;;;5043930;28;20199;-84
2022/03/18 09:53:10;;;;;;;9.57;2.43;;;24.80;74.30;;;;;;5035496;28;20203;-80
2022/03/18 09:55:38;;;;;;;13.77;4.33;;;24.80;75.60;;;;;;5035519;28;20246;-77
2022/03/18 09:58:07;;;;;;;20.13;5.80;;;24.20;81.80;;;;;;5050697;28;20180;-76
2022/03/18 10:00:35;;;;;;;14.00;5.00;;;22.70;90.00;;;;;;5044245;28;20216;-75
2022/03/18 10:03:16;;;;;;;11.30;4.50;;;22.10;91.80;;;;;;5035677;28;20173;-76
2022/03/18 10:05:49;;;;;;;8.13;3.17;;;21.80;92.50;;;;;;5035826;28;20709;-77
2022/03/18 10:08:17;;;;;;;9.13;4.03;;;21.80;92.80;;;;;;5053203;28;20180;-77
2022/03/18 10:10:49;;;;;;;10.73;5.13;;;21.60;92.90;;;;;;5036847;28;20177;-82
2022/03/18 10:13:18;;;;;;;11.27;4.47;;;21.30;92.60;;;;;;5048747;28;20243;-78
2022/03/18 10:15:46;;;;;;;11.27;4.70;;;21.20;92.40;;;;;;5047787;28;20253;-80
2022/03/18 10:18:16;;;;;;;14.27;5.00;;;21.10;91.20;;;;;;5054530;28;20230;-79
2022/03/18 10:20:47;;;;;;;10.70;5.83;;;21.30;92.20;;;;;;5053423;28;20191;-84
2022/03/18 10:23:18;;;;;;;17.33;7.23;;;21.40;92.40;;;;;;5056419;28;20619;-85
2022/03/18 10:25:56;;;;;;;13.50;6.37;;;21.50;92.50;;;;;;5056704;28;20203;-86
2022/03/18 10:28:37;;;;;;;17.97;6.73;;;21.30;92.60;;;;;;5055688;28;20187;-83
2022/03/18 10:31:23;;;;;;;13.53;6.50;;;21.30;92.50;;;;;;5035132;28;20183;-85
2022/03/18 10:37:12;;;;;;;18.33;6.30;;;21.30;93.00;;;;;;5035315;28;20192;-79
2022/03/18 10:39:53;;;;;;;18.83;6.43;;;21.30;92.70;;;;;;5035379;28;20416;-83
2022/03/18 10:42:24;;;;;;;12.40;6.07;;;21.30;92.80;;;;;;5042670;28;20206;-82
2022/03/18 10:45:05;;;;;;;15.17;6.83;;;21.50;92.90;;;;;;5046386;28;20276;-81
2022/03/18 10:47:37;;;;;;;13.93;6.27;;;21.60;93.20;;;;;;5034682;28;20519;-82
2022/03/18 10:50:19;;;;;;;11.10;6.30;;;21.70;93.70;;;;;;5048701;28;20192;-82
2022/03/18 10:52:46;;;;;;;12.53;6.20;;;21.80;93.70;;;;;;5037637;28;20682;-81
2022/03/18 10:55:34;;;;;;;12.10;6.50;;;21.90;93.30;;;;;;5041242;28;20179;-81
2022/03/18 10:58:11;;;;;;;14.70;6.40;;;21.80;93.50;;;;;;5045230;28;20246;-80
2022/03/18 11:00:41;;;;;;;9.60;6.10;;;22.00;93.90;;;;;;5036910;28;20224;-80
2022/03/18 11:03:08;;;;;;;9.70;6.00;;;22.00;93.80;;;;;;5037613;28;20188;-82
2022/03/18 11:05:38;;;;;;;14.00;5.93;;;22.10;93.90;;;;;;5051045;28;20195;-80
2022/03/18 11:08:10;;;;;;;12.13;5.67;;;22.00;93.80;;;;;;5048679;28;20219;-80
2022/03/18 11:13:34;;;;;;;22.33;5.47;;;21.90;93.20;;;;;;5037740;28;20272;-80
2022/03/18 11:16:02;;;;;;;16.57;5.33;;;21.80;93.30;;;;;;5033708;28;20181;-80
2022/03/18 11:18:31;;;;;;;19.77;5.60;;;21.80;94.00;;;;;;5041506;28;20188;-78
2022/03/18 11:21:01;;;;;;;22.10;6.00;;;21.80;93.80;;;;;;5050758;28;20184;-78
2022/03/18 11:23:30;;;;;;;16.53;5.17;;;21.80;93.80;;;;;;5047545;28;20264;-77
2022/03/18 11:26:02;;;;;;;21.03;5.83;;;21.70;93.80;;;;;;5042455;28;20176;-77
2022/03/18 11:28:30;;;;;;;17.93;5.53;;;21.80;94.30;;;;;;5039298;28;20187;-77
2022/03/18 11:31:06;;;;;;;18.93;5.80;;;21.80;94.40;;;;;;5041354;28;20179;-78
2022/03/18 11:33:34;;;;;;;17.97;5.90;;;21.80;93.80;;;;;;5044430;28;20325;-76
2022/03/18 11:36:03;;;;;;;14.23;4.87;;;21.70;94.50;;;;;;5053046;28;20179;-76
2022/03/18 11:38:51;;;;;;;15.87;4.77;;;21.70;94.00;;;;;;5053112;28;20594;-76
2022/03/18 11:41:19;;;;;;;14.50;5.60;;;21.60;94.30;;;;;;5051425;28;20221;-77
2022/03/18 11:43:46;;;;;;;17.93;5.10;;;21.60;94.60;;;;;;5053293;28;20207;-77
2022/03/18 11:46:14;;;;;;;7.17;4.20;;;21.70;94.70;;;;;;5053122;28;20176;-77
2022/03/18 11:49:09;;;;;;;13.60;4.70;;;21.70;94.70;;;;;;5050644;28;20621;-76
2022/03/18 11:51:39;;;;;;;14.63;4.50;;;21.60;94.60;;;;;;5051095;28;20206;-75
2022/03/18 11:54:12;;;;;;;11.90;5.13;;;21.50;94.50;;;;;;5053124;28;20191;-77
2022/03/18 11:56:46;;;;;;;17.77;5.90;;;21.50;94.40;;;;;;5052224;28;20195;-76
2022/03/18 11:59:29;;;;;;;12.60;5.53;;;21.50;94.40;;;;;;5052976;28;20552;-76
2022/03/18 12:02:06;;;;;;;18.70;6.23;;;21.60;94.60;;;;;;5034487;28;20259;-77
2022/03/18 12:04:36;;;;;;;11.60;5.77;;;21.70;94.50;;;;;;5045782;28;20190;-78
2022/03/18 12:07:34;;;;;;;17.83;5.70;;;21.70;94.30;;;;;;5033014;28;20290;-79
2022/03/18 12:10:08;;;;;;;12.10;5.00;;;21.80;94.10;;;;;;5032807;28;20181;-76
2022/03/18 12:12:44;;;;;;;13.37;4.87;;;21.80;94.20;;;;;;5041928;28;20233;-79
2022/03/18 12:15:22;;;;;;;18.07;5.43;;;21.80;94.00;;;;;;5052614;28;20178;-76
2022/03/18 12:17:53;;;;;;;16.03;5.20;;;21.70;94.10;;;;;;5052803;28;20263;-77
2022/03/18 12:20:24;;;;;;;15.40;5.40;;;21.80;94.30;;;;;;5052442;28;20654;-79
2022/03/18 12:22:53;;;;;;;16.30;5.23;;;21.80;94.40;;;;;;5052660;28;20175;-77
2022/03/18 12:25:24;;;;;;;18.80;5.83;;;21.80;94.40;;;;;;5052706;28;20255;-75
2022/03/18 12:27:53;;;;;;;16.63;5.97;;;21.80;94.30;;;;;;5037304;28;20271;-75
2022/03/18 12:30:29;;;;;;;23.27;5.77;;;21.80;94.40;;;;;;5037061;28;20176;-75
2022/03/18 12:33:01;;;;;;;16.03;7.47;;;21.80;94.50;;;;;;5051055;28;20180;-78
2022/03/18 12:35:36;;;;;;;18.87;5.87;;;21.80;94.30;;;;;;5052448;28;20211;-79
2022/03/18 12:38:09;;;;;;;15.67;6.00;;;21.80;94.40;;;;;;5045836;28;20562;-78
2022/03/18 12:40:41;;;;;;;18.00;5.70;;;21.80;94.20;;;;;;5052181;28;20208;-77
2022/03/18 12:43:09;;;;;;;14.50;5.63;;;21.80;94.50;;;;;;5034507;28;20184;-75
2022/03/18 12:45:42;;;;;;;15.90;6.10;;;21.80;94.30;;;;;;5044668;28;20184;-76
2022/03/18 12:48:13;;;;;;;11.37;5.33;;;21.80;94.20;;;;;;5052531;28;20179;-75
2022/03/18 12:50:57;;;;;;;11.27;5.30;;;21.80;94.20;;;;;;5052247;28;20180;-75
2022/03/18 12:53:35;;;;;;;14.80;5.50;;;21.80;94.20;;;;;;5052653;28;20179;-76
2022/03/18 12:56:06;;;;;;;13.13;5.10;;;21.80;93.90;;;;;;5052417;28;20183;-75
2022/03/18 12:58:41;;;;;;;15.17;5.37;;;21.80;94.10;;;;;;5050561;28;20262;-75
2022/03/18 13:01:11;;;;;;;14.33;5.57;;;21.80;93.70;;;;;;5032683;28;20558;-74
2022/03/18 13:03:48;;;;;;;12.27;4.83;;;21.80;93.40;;;;;;5040172;28;20195;-75
2022/03/18 13:06:22;;;;;;;12.23;4.93;;;21.80;93.50;;;;;;5050823;28;20227;-75
2022/03/18 13:08:53;;;;;;;12.07;4.67;;;21.80;93.00;;;;;;5054384;28;20542;-74
2022/03/18 13:11:22;;;;;;;9.07;4.27;;;21.80;92.80;;;;;;5052718;28;20538;-75
2022/03/18 13:13:53;;;;;;;11.73;4.00;;;21.80;92.50;;;;;;5045601;28;20742;-74
2022/03/18 13:16:23;;;;;;;21.10;5.80;;;21.80;92.30;;;;;;5032079;28;20187;-74
2022/03/18 13:18:56;;;;;;;31.37;22.57;;;21.80;92.40;;;;;;5032064;28;20659;-75